Time;durP1;ratioP1;P1;durP2;ratioP2;P2;SDS_P1;SDS_P2;PMS_P1;PMS_P2;Temp;Humidity;BMP_temperature;BMP_pressure;BME280_temperature;BME280_humidity;BME280_pressure;Samples;Min_cycle;Max_cycle;Signal;HPM_P1;HPM_P2
2022/06/24 00:00:09;;;;;;;1.00;0.63;;;21.80;99.90;;;;;;7398066;19;20150;-73
2022/06/24 00:02:37;;;;;;;1.45;0.75;;;22.00;99.90;;;;;;7394293;19;20146;-79
2022/06/24 00:05:07;;;;;;;2.67;1.20;;;21.90;99.90;;;;;;7395440;19;20517;-82
2022/06/24 00:07:48;;;;;;;3.65;0.95;;;22.00;99.90;;;;;;7396958;19;20129;-73
2022/06/24 00:10:16;;;;;;;3.17;1.00;;;22.10;99.90;;;;;;7397125;19;20138;-79
2022/06/24 00:12:45;;;;;;;2.50;1.02;;;22.20;99.90;;;;;;7395719;19;20151;-78
2022/06/24 00:15:11;;;;;;;1.42;0.73;;;22.20;99.90;;;;;;7393454;19;20267;-73
2022/06/24 00:17:37;;;;;;;2.03;0.85;;;22.10;99.90;;;;;;7396245;19;20150;-79
2022/06/24 00:20:09;;;;;;;3.03;1.00;;;22.20;99.90;;;;;;7395887;19;20158;-81
2022/06/24 00:22:49;;;;;;;2.17;1.08;;;22.20;99.90;;;;;;7395895;19;20608;-76
2022/06/24 00:25:20;;;;;;;7.78;1.00;;;22.20;99.90;;;;;;7397354;19;20165;-80
2022/06/24 00:28:05;;;;;;;1.50;0.88;;;22.20;99.90;;;;;;7395501;19;20187;-80
2022/06/24 00:31:04;;;;;;;3.03;1.00;;;22.10;99.90;;;;;;7394488;19;20150;-73
2022/06/24 00:33:34;;;;;;;1.45;0.80;;;22.10;99.90;;;;;;7394417;19;20159;-73
2022/06/24 00:36:00;;;;;;;1.98;0.90;;;22.10;99.90;;;;;;7394435;19;20154;-81
2022/06/24 00:38:35;;;;;;;4.00;1.00;;;22.10;99.90;;;;;;7394534;19;20163;-81
2022/06/24 00:41:04;;;;;;;2.30;0.88;;;22.10;99.90;;;;;;7393097;19;20165;-72
2022/06/24 00:43:42;;;;;;;2.90;0.88;;;22.00;99.90;;;;;;7394810;19;20494;-80
2022/06/24 00:46:13;;;;;;;2.03;1.00;;;21.80;99.90;;;;;;7394611;19;20144;-73
2022/06/24 00:48:43;;;;;;;5.20;0.82;;;21.80;99.90;;;;;;7396616;19;20620;-78
2022/06/24 00:51:09;;;;;;;3.78;0.98;;;21.90;99.90;;;;;;7395695;19;20138;-73
2022/06/24 00:53:47;;;;;;;2.45;1.00;;;21.80;99.90;;;;;;7392783;19;20452;-80
2022/06/24 00:56:15;;;;;;;3.53;1.13;;;21.80;99.90;;;;;;7392731;19;20532;-73
2022/06/24 00:58:53;;;;;;;2.33;0.90;;;21.80;99.90;;;;;;7395212;19;20601;-79
2022/06/24 01:01:26;;;;;;;3.90;1.05;;;21.80;99.90;;;;;;7392320;19;20146;-80
2022/06/24 01:03:56;;;;;;;1.65;0.80;;;21.80;99.90;;;;;;7393848;19;20147;-72
2022/06/24 01:06:23;;;;;;;2.20;0.90;;;21.80;99.90;;;;;;7391802;19;20636;-73
2022/06/24 01:08:49;;;;;;;3.28;1.02;;;21.80;99.90;;;;;;7391919;19;20594;-80
2022/06/24 01:11:28;;;;;;;2.47;1.05;;;21.80;99.90;;;;;;7393692;19;20137;-73
2022/06/24 01:13:55;;;;;;;2.95;1.00;;;21.80;99.90;;;;;;7392888;19;20504;-79
2022/06/24 01:16:23;;;;;;;1.67;1.00;;;21.70;99.90;;;;;;7393195;19;20138;-72
2022/06/24 01:18:59;;;;;;;3.00;1.27;;;21.70;99.90;;;;;;7393272;19;20150;-73
2022/06/24 01:21:37;;;;;;;3.17;0.95;;;21.70;99.90;;;;;;7390034;19;20150;-79
2022/06/24 01:24:17;;;;;;;3.22;1.10;;;21.70;99.90;;;;;;7392686;19;20222;-73
2022/06/24 01:26:49;;;;;;;2.55;1.23;;;21.60;99.90;;;;;;7391713;19;20138;-74
2022/06/24 01:29:15;;;;;;;3.65;1.30;;;21.60;99.90;;;;;;7391549;19;20628;-73
2022/06/24 01:31:49;;;;;;;3.95;1.02;;;21.70;99.90;;;;;;7393582;19;20146;-75
2022/06/24 01:34:20;;;;;;;2.95;1.38;;;21.60;99.90;;;;;;7397058;19;20130;-79
2022/06/24 01:36:47;;;;;;;1.73;1.02;;;21.50;99.90;;;;;;7393595;19;20161;-80
2022/06/24 01:39:12;;;;;;;4.63;1.33;;;21.50;99.90;;;;;;7393247;19;20130;-73
2022/06/24 01:41:38;;;;;;;2.17;0.95;;;21.20;99.90;;;;;;7388423;19;20181;-73
2022/06/24 01:44:04;;;;;;;4.88;1.08;;;21.20;99.90;;;;;;7395749;19;20156;-79
2022/06/24 01:46:30;;;;;;;1.67;1.00;;;21.40;99.90;;;;;;7392198;19;20146;-79
2022/06/24 01:48:56;;;;;;;3.30;1.02;;;21.50;99.90;;;;;;7391157;19;20139;-79
2022/06/24 01:51:24;;;;;;;3.22;1.33;;;21.50;99.90;;;;;;7389860;19;20609;-80
2022/06/24 01:53:50;;;;;;;2.28;1.10;;;21.60;99.90;;;;;;7393101;19;20457;-73
2022/06/24 01:56:17;;;;;;;3.22;1.40;;;21.60;99.90;;;;;;7391377;19;20184;-78
2022/06/24 01:58:43;;;;;;;4.07;1.45;;;21.60;99.90;;;;;;7394879;19;20207;-79
2022/06/24 02:01:09;;;;;;;4.28;1.27;;;21.60;99.90;;;;;;7389783;19;20146;-72
2022/06/24 02:03:38;;;;;;;3.60;1.67;;;21.60;99.90;;;;;;7388776;19;20152;-73
2022/06/24 02:06:05;;;;;;;2.65;0.93;;;21.60;99.90;;;;;;7393047;19;20154;-73
2022/06/24 02:08:32;;;;;;;3.25;1.30;;;21.00;99.90;;;;;;7394296;19;20138;-79
2022/06/24 02:13:45;;;;;;;4.35;1.35;;;21.30;99.90;;;;;;7391752;19;20143;-79
2022/06/24 02:16:12;;;;;;;4.25;1.20;;;21.40;99.90;;;;;;7390447;19;20486;-79
2022/06/24 02:18:40;;;;;;;3.13;1.45;;;21.50;99.90;;;;;;7387051;19;20220;-73
2022/06/24 02:21:07;;;;;;;3.60;1.25;;;21.40;99.90;;;;;;7392299;19;20142;-78
2022/06/24 02:23:33;;;;;;;4.78;1.30;;;21.30;99.90;;;;;;7393114;19;20153;-73
2022/06/24 02:26:00;;;;;;;3.85;1.58;;;21.40;99.90;;;;;;7391576;19;20589;-72
2022/06/24 02:28:25;;;;;;;4.57;1.27;;;21.40;99.90;;;;;;7390369;19;20149;-79
2022/06/24 02:30:54;;;;;;;3.47;1.25;;;21.40;99.90;;;;;;7390886;19;20587;-78
2022/06/24 02:33:20;;;;;;;2.80;0.93;;;21.20;99.90;;;;;;7391436;19;20131;-78
2022/06/24 02:35:46;;;;;;;1.60;1.10;;;21.40;99.90;;;;;;7389417;19;20528;-73
2022/06/24 02:38:12;;;;;;;2.92;1.00;;;21.10;99.90;;;;;;7391756;19;20146;-73
2022/06/24 02:40:47;;;;;;;3.33;1.08;;;21.30;99.90;;;;;;7387832;19;20130;-77
2022/06/24 02:43:24;;;;;;;3.47;1.35;;;21.40;99.90;;;;;;7390003;19;20205;-77
2022/06/24 02:45:57;;;;;;;2.88;1.10;;;21.40;99.90;;;;;;7392284;19;20141;-73
2022/06/24 02:48:23;;;;;;;3.83;1.55;;;21.20;99.90;;;;;;7389304;19;20151;-78
2022/06/24 02:50:55;;;;;;;3.47;1.30;;;21.30;99.90;;;;;;7382848;19;20147;-77
2022/06/24 02:53:22;;;;;;;4.28;1.67;;;21.30;99.90;;;;;;7396026;19;20134;-73
2022/06/24 02:55:51;;;;;;;3.20;1.20;;;21.10;99.90;;;;;;7402009;19;20202;-79
2022/06/24 02:58:17;;;;;;;3.05;1.13;;;21.10;99.90;;;;;;7397459;19;20146;-75
2022/06/24 03:00:43;;;;;;;5.72;1.40;;;21.20;99.90;;;;;;7396533;19;20186;-73
2022/06/24 03:03:13;;;;;;;3.80;1.35;;;21.30;99.90;;;;;;7394975;19;20190;-73
2022/06/24 03:05:40;;;;;;;3.90;1.40;;;21.30;99.90;;;;;;7399639;19;20146;-74
2022/06/24 03:08:07;;;;;;;5.70;1.63;;;21.40;99.90;;;;;;7397034;19;20149;-77
2022/06/24 03:10:33;;;;;;;2.55;1.10;;;21.30;99.90;;;;;;7397026;19;20621;-74
2022/06/24 03:12:59;;;;;;;3.92;1.27;;;21.20;99.90;;;;;;7400760;19;20157;-77
2022/06/24 03:15:25;;;;;;;9.10;1.40;;;21.30;99.90;;;;;;7396728;19;20131;-73
2022/06/24 03:17:51;;;;;;;3.78;1.33;;;21.20;99.90;;;;;;7396025;19;20141;-73
2022/06/24 03:20:17;;;;;;;5.55;1.33;;;21.20;99.90;;;;;;7395266;19;20263;-73
2022/06/24 03:22:43;;;;;;;4.47;1.40;;;21.40;99.90;;;;;;7397051;19;20487;-78
2022/06/24 03:25:08;;;;;;;2.30;1.33;;;21.20;99.90;;;;;;7395712;19;20143;-78
2022/06/24 03:27:35;;;;;;;4.88;1.27;;;21.30;99.90;;;;;;7397691;19;20162;-78
2022/06/24 03:30:01;;;;;;;3.78;1.30;;;21.30;99.90;;;;;;7395795;19;20139;-72
2022/06/24 03:32:27;;;;;;;2.38;1.38;;;21.40;99.90;;;;;;7395276;19;20139;-73
2022/06/24 03:34:53;;;;;;;5.47;1.30;;;21.40;99.90;;;;;;7399833;19;20138;-78
2022/06/24 03:37:19;;;;;;;2.15;1.27;;;20.90;99.90;;;;;;7396851;19;20159;-73
2022/06/24 03:39:45;;;;;;;4.53;1.50;;;20.90;99.90;;;;;;7395034;19;20145;-80
2022/06/24 03:42:11;;;;;;;4.72;1.60;;;20.90;99.90;;;;;;7396389;19;20589;-78
2022/06/24 03:44:37;;;;;;;3.92;1.42;;;21.10;99.90;;;;;;7397129;19;20153;-73
2022/06/24 03:47:03;;;;;;;3.75;1.50;;;21.20;99.90;;;;;;7396261;19;20151;-73
2022/06/24 03:49:29;;;;;;;5.30;1.58;;;21.10;99.90;;;;;;7398896;19;20150;-80
2022/06/24 03:51:54;;;;;;;2.88;1.20;;;21.30;99.90;;;;;;7396314;19;20594;-78
2022/06/24 03:54:21;;;;;;;3.70;1.60;;;21.30;99.90;;;;;;7396183;19;20150;-73
2022/06/24 03:56:46;;;;;;;5.25;1.30;;;21.20;99.90;;;;;;7398218;19;20135;-74
2022/06/24 03:59:12;;;;;;;4.38;1.52;;;21.10;99.90;;;;;;7396206;19;20500;-73
2022/06/24 04:01:38;;;;;;;4.93;1.30;;;21.20;99.90;;;;;;7395177;19;20228;-78
2022/06/24 04:04:04;;;;;;;4.72;1.30;;;21.30;99.90;;;;;;7390897;19;20159;-74
2022/06/24 04:06:30;;;;;;;3.17;1.30;;;20.70;99.90;;;;;;7395003;19;20177;-74
2022/06/24 04:08:56;;;;;;;4.28;1.23;;;20.70;99.90;;;;;;7395450;19;20154;-75
2022/06/24 04:11:22;;;;;;;4.90;1.50;;;20.70;99.90;;;;;;7396163;19;20138;-79
2022/06/24 04:13:48;;;;;;;5.53;1.50;;;20.70;99.90;;;;;;7394645;19;20665;-80
2022/06/24 04:16:15;;;;;;;2.38;1.30;;;20.90;99.90;;;;;;7396957;19;20157;-73
2022/06/24 04:18:41;;;;;;;4.40;1.08;;;20.90;99.90;;;;;;7394018;19;20173;-73
2022/06/24 04:21:15;;;;;;;4.28;1.20;;;21.10;99.90;;;;;;7394310;19;20158;-75
2022/06/24 04:23:42;;;;;;;5.32;1.65;;;21.20;99.90;;;;;;7395627;19;20723;-79
2022/06/24 04:26:08;;;;;;;7.07;1.60;;;21.20;99.90;;;;;;7398522;19;20177;-74
2022/06/24 04:28:35;;;;;;;3.72;1.30;;;21.00;99.90;;;;;;7394204;19;20178;-75
2022/06/24 04:31:01;;;;;;;2.67;1.48;;;20.80;99.90;;;;;;7394107;19;20146;-73
2022/06/24 04:33:27;;;;;;;5.70;1.50;;;20.80;99.90;;;;;;7393260;19;20169;-79
2022/06/24 04:35:53;;;;;;;2.75;1.02;;;21.10;99.90;;;;;;7393182;19;20143;-79
2022/06/24 04:38:19;;;;;;;2.40;1.40;;;21.10;99.90;;;;;;7395220;19;20139;-79
2022/06/24 04:40:45;;;;;;;6.50;2.00;;;20.40;99.90;;;;;;7392947;19;20150;-80
2022/06/24 04:43:12;;;;;;;4.20;1.42;;;20.50;99.90;;;;;;7394985;19;20158;-78
2022/06/24 04:45:38;;;;;;;3.70;1.50;;;20.80;99.90;;;;;;7395145;19;20142;-79
2022/06/24 04:48:05;;;;;;;3.85;1.40;;;20.80;99.90;;;;;;7395140;19;20161;-79
2022/06/24 04:50:30;;;;;;;2.70;1.38;;;21.00;99.90;;;;;;7396811;19;20154;-73
2022/06/24 04:52:56;;;;;;;5.75;1.40;;;21.10;99.90;;;;;;7392947;19;20151;-74
2022/06/24 04:55:22;;;;;;;3.53;2.08;;;21.20;99.90;;;;;;7392983;19;20130;-78
2022/06/24 04:57:48;;;;;;;7.00;1.52;;;21.20;99.90;;;;;;7393493;19;20247;-78
2022/06/24 05:00:15;;;;;;;4.03;1.60;;;21.10;99.90;;;;;;7393599;19;20143;-74
2022/06/24 05:02:41;;;;;;;6.25;1.38;;;20.80;99.90;;;;;;7390959;19;20143;-74
2022/06/24 05:05:09;;;;;;;3.60;1.50;;;20.80;99.90;;;;;;7393308;19;20150;-80
2022/06/24 05:07:35;;;;;;;4.00;1.55;;;20.60;99.90;;;;;;7390479;19;20146;-77
2022/06/24 05:10:01;;;;;;;2.85;1.40;;;20.60;99.90;;;;;;7391611;19;20617;-73
2022/06/24 05:12:27;;;;;;;4.63;1.63;;;20.90;99.90;;;;;;7394220;19;20149;-73
2022/06/24 05:14:53;;;;;;;6.15;1.58;;;21.10;99.90;;;;;;7392360;19;20210;-74
2022/06/24 05:17:18;;;;;;;2.88;1.30;;;21.30;99.90;;;;;;7390536;19;20513;-72
2022/06/24 05:19:44;;;;;;;2.17;1.38;;;21.50;99.90;;;;;;7390668;19;20242;-73
2022/06/24 05:22:10;;;;;;;6.15;1.85;;;21.40;99.90;;;;;;7390801;19;20176;-73
2022/06/24 05:24:36;;;;;;;5.05;1.55;;;21.50;99.90;;;;;;7391082;19;20158;-73
2022/06/24 05:27:02;;;;;;;4.80;1.88;;;21.50;99.90;;;;;;7390022;19;20140;-75
2022/06/24 05:29:28;;;;;;;5.72;2.03;;;21.60;99.90;;;;;;7389771;19;20145;-76
2022/06/24 05:31:54;;;;;;;4.60;1.90;;;21.70;99.90;;;;;;7391450;19;20613;-76
2022/06/24 05:34:19;;;;;;;7.13;1.98;;;21.80;99.90;;;;;;7386868;19;20142;-76
2022/06/24 05:36:45;;;;;;;5.68;1.80;;;21.80;99.90;;;;;;7389894;19;20155;-77
2022/06/24 05:39:11;;;;;;;3.25;1.40;;;21.80;99.90;;;;;;7389026;19;20850;-77
2022/06/24 05:41:40;;;;;;;6.93;1.55;;;21.90;99.90;;;;;;7392825;19;20137;-78
2022/06/24 05:44:07;;;;;;;3.95;1.98;;;22.00;99.90;;;;;;7390683;19;20177;-74
2022/06/24 05:46:33;;;;;;;2.90;1.40;;;21.90;99.90;;;;;;7391676;19;20154;-77
2022/06/24 05:48:59;;;;;;;7.50;1.70;;;21.90;99.90;;;;;;7391869;19;20138;-78
2022/06/24 05:51:25;;;;;;;5.82;1.80;;;22.10;99.90;;;;;;7393564;19;20127;-78
2022/06/24 05:56:35;;;;;;;6.75;1.55;;;22.10;99.90;;;;;;7387257;19;20624;-77
2022/06/24 05:59:01;;;;;;;5.03;2.50;;;22.00;99.90;;;;;;7389540;19;20160;-76
2022/06/24 06:01:37;;;;;;;4.53;2.80;;;22.10;99.90;;;;;;7388351;19;20436;-76
2022/06/24 06:04:03;;;;;;;7.18;2.83;;;22.10;99.90;;;;;;7390742;19;20150;-76
2022/06/24 06:06:29;;;;;;;6.82;2.40;;;22.00;99.90;;;;;;7390100;19;20246;-77
2022/06/24 06:08:57;;;;;;;18.30;12.13;;;22.10;99.90;;;;;;7390381;19;20174;-76
2022/06/24 06:11:24;;;;;;;6.78;1.92;;;22.10;99.90;;;;;;7392426;19;20146;-77
2022/06/24 06:13:52;;;;;;;2.35;1.52;;;22.30;99.90;;;;;;7389649;19;20135;-77
2022/06/24 06:16:18;;;;;;;4.47;1.45;;;22.70;99.90;;;;;;7390424;19;20161;-75
2022/06/24 06:18:45;;;;;;;2.20;1.48;;;23.60;99.90;;;;;;7389298;19;20151;-75
2022/06/24 06:21:12;;;;;;;3.05;1.85;;;23.90;99.90;;;;;;7389644;19;20139;-75
2022/06/24 06:23:40;;;;;;;5.18;1.80;;;24.40;99.90;;;;;;7390316;19;20158;-75
2022/06/24 06:26:08;;;;;;;4.72;1.65;;;24.80;99.90;;;;;;7392660;19;20943;-77
2022/06/24 06:28:34;;;;;;;3.03;1.88;;;25.60;99.90;;;;;;7390309;19;20574;-75
2022/06/24 06:31:00;;;;;;;2.70;1.38;;;25.30;99.90;;;;;;7387450;19;20158;-77
2022/06/24 06:33:26;;;;;;;2.40;1.17;;;25.50;99.90;;;;;;7392252;19;20142;-75
2022/06/24 06:36:00;;;;;;;3.80;1.58;;;25.80;99.90;;;;;;7391288;19;20245;-75
2022/06/24 06:38:26;;;;;;;2.47;1.27;;;25.80;99.90;;;;;;7391775;19;20154;-76
2022/06/24 06:40:52;;;;;;;7.22;4.47;;;26.30;99.90;;;;;;7388766;19;20630;-77
2022/06/24 06:43:18;;;;;;;6.85;1.80;;;26.70;99.90;;;;;;7389555;19;20138;-77
2022/06/24 06:45:43;;;;;;;3.50;1.98;;;26.70;99.90;;;;;;7390411;19;20510;-75
2022/06/24 06:48:09;;;;;;;3.95;1.92;;;27.30;99.90;;;;;;7391191;19;20140;-76
2022/06/24 06:50:35;;;;;;;5.85;1.60;;;27.30;99.90;;;;;;7387293;19;20166;-76
2022/06/24 06:53:02;;;;;;;8.27;1.58;;;27.70;99.90;;;;;;7390024;19;20151;-79
2022/06/24 06:55:28;;;;;;;2.70;1.20;;;28.40;99.90;;;;;;7392309;19;20857;-79
2022/06/24 06:57:54;;;;;;;2.50;1.00;;;29.00;99.90;;;;;;7387875;19;20134;-78
2022/06/24 07:00:21;;;;;;;4.43;1.30;;;28.50;99.90;;;;;;7386540;19;20167;-78
2022/06/24 07:02:48;;;;;;;4.05;1.30;;;28.80;99.90;;;;;;7389690;19;20221;-76
2022/06/24 07:05:14;;;;;;;3.60;1.55;;;28.40;99.90;;;;;;7389082;19;20154;-75
2022/06/24 07:07:40;;;;;;;3.92;1.30;;;29.20;99.90;;;;;;7388852;19;20142;-79
2022/06/24 07:10:06;;;;;;;2.40;1.10;;;29.60;99.90;;;;;;7393357;19;20143;-79
2022/06/24 07:12:33;;;;;;;1.50;0.95;;;29.80;99.90;;;;;;7387021;19;20163;-79
2022/06/24 07:14:59;;;;;;;3.83;1.30;;;29.70;99.90;;;;;;7390179;19;20122;-76
2022/06/24 07:17:25;;;;;;;3.25;1.35;;;29.40;99.90;;;;;;7389833;19;20600;-77
2022/06/24 07:19:50;;;;;;;3.33;1.10;;;29.50;99.90;;;;;;7386414;19;20202;-78
2022/06/24 07:22:16;;;;;;;2.75;1.27;;;29.20;99.90;;;;;;7388463;19;20146;-76
2022/06/24 07:24:44;;;;;;;2.17;1.10;;;29.70;99.90;;;;;;7387530;19;20151;-76
2022/06/24 07:27:10;;;;;;;2.92;1.23;;;29.40;99.90;;;;;;7388058;19;20493;-76
2022/06/24 07:29:41;;;;;;;3.75;1.42;;;29.60;99.90;;;;;;7387975;19;20150;-76
2022/06/24 07:32:07;;;;;;;3.33;1.35;;;28.70;99.90;;;;;;7388559;19;20283;-79
2022/06/24 07:34:33;;;;;;;4.25;1.50;;;29.30;99.90;;;;;;7389642;19;20139;-79
2022/06/24 07:37:01;;;;;;;2.45;1.50;;;29.30;99.90;;;;;;7388456;19;20135;-80
2022/06/24 07:39:28;;;;;;;5.07;1.55;;;29.10;99.90;;;;;;7388781;19;20150;-79
2022/06/24 07:41:54;;;;;;;3.92;1.90;;;28.90;99.90;;;;;;7392572;19;20174;-77
2022/06/24 07:44:23;;;;;;;2.97;1.70;;;28.10;99.90;;;;;;7396463;19;20143;-77
2022/06/24 07:46:50;;;;;;;4.00;1.38;;;27.70;99.90;;;;;;7399298;19;20143;-79
2022/06/24 07:49:16;;;;;;;2.67;1.55;;;27.30;99.90;;;;;;7402922;19;20133;-77
2022/06/24 07:51:43;;;;;;;2.50;1.42;;;27.20;99.90;;;;;;7395084;19;20602;-77
2022/06/24 07:54:10;;;;;;;2.45;1.25;;;27.50;99.90;;;;;;7403584;19;20500;-78
2022/06/24 07:59:23;;;;;;;5.40;1.58;;;28.30;99.90;;;;;;7399158;19;20146;-82
2022/06/24 08:01:48;;;;;;;4.38;1.50;;;28.80;99.90;;;;;;7394082;19;20154;-77
2022/06/24 08:04:14;;;;;;;3.50;1.40;;;28.30;99.90;;;;;;7396323;19;20670;-81
2022/06/24 08:06:46;;;;;;;1.98;1.25;;;28.90;99.90;;;;;;7395486;19;20785;-83
2022/06/24 08:09:12;;;;;;;2.53;1.13;;;29.20;99.90;;;;;;7395069;19;20536;-79
2022/06/24 08:11:38;;;;;;;3.55;1.48;;;29.70;99.90;;;;;;7395217;19;20146;-77
2022/06/24 08:14:04;;;;;;;4.63;1.58;;;30.10;99.90;;;;;;7392724;19;20158;-80
2022/06/24 08:16:30;;;;;;;2.90;1.00;;;30.10;99.90;;;;;;7391086;19;20723;-81
2022/06/24 08:18:56;;;;;;;3.45;1.30;;;30.00;99.40;;;;;;7391949;19;20161;-75
2022/06/24 08:21:22;;;;;;;2.60;1.52;;;29.80;99.90;;;;;;7392866;19;20145;-75
2022/06/24 08:23:48;;;;;;;6.35;4.45;;;29.80;99.90;;;;;;7394245;19;20158;-77
2022/06/24 08:26:15;;;;;;;4.65;1.45;;;29.70;99.00;;;;;;7394435;19;20137;-81
2022/06/24 08:28:41;;;;;;;3.78;1.23;;;30.20;99.60;;;;;;7392932;19;20213;-78
2022/06/24 08:31:07;;;;;;;3.55;1.90;;;30.20;98.50;;;;;;7393928;19;20168;-80
2022/06/24 08:33:33;;;;;;;2.45;1.65;;;30.70;98.40;;;;;;7396835;19;20143;-79
2022/06/24 08:35:58;;;;;;;1.95;1.00;;;31.00;97.80;;;;;;7391626;19;20206;-77
2022/06/24 08:38:24;;;;;;;2.72;1.30;;;31.30;96.70;;;;;;7395044;19;20175;-81
2022/06/24 08:40:54;;;;;;;2.80;0.75;;;31.10;97.20;;;;;;7391071;19;20146;-79
2022/06/24 08:43:21;;;;;;;3.03;1.40;;;30.40;95.40;;;;;;7393555;19;20781;-77
2022/06/24 08:45:48;;;;;;;2.15;1.23;;;29.80;96.50;;;;;;7392723;19;20498;-80
2022/06/24 08:48:15;;;;;;;3.72;1.92;;;29.40;97.80;;;;;;7399468;19;20123;-74
2022/06/24 08:50:41;;;;;;;5.15;1.30;;;29.40;98.40;;;;;;7400163;19;20508;-80
2022/06/24 08:53:09;;;;;;;2.85;0.93;;;29.20;98.70;;;;;;7397792;19;20143;-77
2022/06/24 08:55:37;;;;;;;2.65;1.00;;;28.80;99.20;;;;;;7396115;19;20150;-77
2022/06/24 08:58:11;;;;;;;3.40;1.25;;;28.60;99.20;;;;;;7392963;19;20177;-76
2022/06/24 09:00:38;;;;;;;2.17;0.93;;;28.10;99.40;;;;;;7393147;19;20130;-77
2022/06/24 09:03:05;;;;;;;2.50;0.90;;;27.90;99.90;;;;;;7392539;19;20166;-81
2022/06/24 09:05:32;;;;;;;1.23;0.82;;;27.10;99.90;;;;;;7392448;19;20150;-80
2022/06/24 09:08:08;;;;;;;2.90;1.10;;;27.00;99.90;;;;;;7392202;19;20151;-77
2022/06/24 09:10:36;;;;;;;3.97;1.20;;;27.20;99.90;;;;;;7393172;19;20130;-78
2022/06/24 09:13:03;;;;;;;4.25;2.17;;;27.40;99.90;;;;;;7392345;19;20131;-81
2022/06/24 09:15:29;;;;;;;2.75;1.77;;;27.60;99.90;;;;;;7393076;19;20152;-79
2022/06/24 09:17:55;;;;;;;3.58;1.23;;;27.80;99.90;;;;;;7393685;19;20150;-78
2022/06/24 09:20:23;;;;;;;3.05;1.52;;;27.90;99.90;;;;;;7392221;19;20174;-79
2022/06/24 09:22:50;;;;;;;1.52;1.08;;;28.20;99.90;;;;;;7393101;19;20178;-79
2022/06/24 09:25:16;;;;;;;2.92;1.25;;;28.40;99.90;;;;;;7390706;19;20150;-79
2022/06/24 09:27:44;;;;;;;3.67;1.17;;;28.60;99.90;;;;;;7390784;19;20489;-76
2022/06/24 09:30:17;;;;;;;1.83;1.17;;;28.70;99.70;;;;;;7392763;19;20138;-78
2022/06/24 09:32:51;;;;;;;2.95;1.05;;;28.60;99.90;;;;;;7396322;19;20566;-81
2022/06/24 09:35:19;;;;;;;3.25;1.00;;;28.10;99.90;;;;;;7390993;19;20141;-81
2022/06/24 09:37:49;;;;;;;1.20;1.00;;;27.80;99.90;;;;;;7392875;19;20158;-78
2022/06/24 09:40:25;;;;;;;1.90;1.42;;;27.50;99.90;;;;;;7393484;19;20147;-77
2022/06/24 09:43:04;;;;;;;3.17;1.10;;;27.40;99.90;;;;;;7393733;19;20238;-78
2022/06/24 09:45:50;;;;;;;3.20;1.02;;;27.30;99.90;;;;;;7390337;19;20503;-80
2022/06/24 09:48:37;;;;;;;2.22;1.40;;;26.90;99.90;;;;;;7389580;19;20157;-76
2022/06/24 09:51:05;;;;;;;4.97;1.67;;;26.70;99.90;;;;;;7391206;19;20175;-78
2022/06/24 09:53:35;;;;;;;2.40;1.58;;;26.60;99.90;;;;;;7389267;19;20166;-78
2022/06/24 09:56:02;;;;;;;2.83;1.17;;;26.50;99.90;;;;;;7393267;19;20220;-78
2022/06/24 09:58:29;;;;;;;3.85;1.55;;;26.30;99.90;;;;;;7392496;19;20169;-77
2022/06/24 10:00:55;;;;;;;2.90;1.15;;;26.30;99.90;;;;;;7391577;19;20751;-78
2022/06/24 10:03:21;;;;;;;3.30;1.25;;;26.30;99.90;;;;;;7394913;19;20182;-78
2022/06/24 10:05:49;;;;;;;2.92;1.15;;;26.20;99.90;;;;;;7391814;19;20158;-76
2022/06/24 10:08:22;;;;;;;1.95;1.20;;;26.20;99.90;;;;;;7393817;19;20153;-78
2022/06/24 10:10:53;;;;;;;3.28;1.15;;;26.20;99.90;;;;;;7390855;19;20183;-81
2022/06/24 10:13:33;;;;;;;2.30;1.23;;;26.10;99.90;;;;;;7391444;19;20154;-83
2022/06/24 10:16:01;;;;;;;2.08;1.40;;;26.10;99.90;;;;;;7395799;19;20150;-80
2022/06/24 10:18:32;;;;;;;2.58;1.08;;;26.20;99.90;;;;;;7395060;19;20170;-82
2022/06/24 10:21:01;;;;;;;1.77;1.10;;;26.20;99.90;;;;;;7390843;19;20141;-81
2022/06/24 10:23:39;;;;;;;2.67;1.20;;;26.30;99.90;;;;;;7388124;19;20146;-82
2022/06/24 10:26:21;;;;;;;3.20;1.40;;;26.60;99.90;;;;;;7396658;19;20458;-83
2022/06/24 10:29:03;;;;;;;4.70;1.50;;;26.50;99.90;;;;;;7395112;19;20150;-76
2022/06/24 10:31:56;;;;;;;3.13;1.40;;;26.60;99.90;;;;;;7393704;19;20519;-77
2022/06/24 10:34:33;;;;;;;4.10;1.50;;;26.40;99.90;;;;;;7390475;19;20134;-80
2022/06/24 10:37:00;;;;;;;3.65;1.55;;;26.30;99.90;;;;;;7392686;19;20149;-80
2022/06/24 10:39:30;;;;;;;1.88;1.08;;;26.20;99.90;;;;;;7389199;19;20150;-77
2022/06/24 10:42:03;;;;;;;4.18;1.42;;;26.00;99.90;;;;;;7388148;19;20142;-76
2022/06/24 10:44:37;;;;;;;2.25;1.55;;;25.70;99.90;;;;;;7391792;19;20149;-81
2022/06/24 10:47:12;;;;;;;3.85;1.70;;;25.60;99.90;;;;;;7390146;19;20254;-82
2022/06/24 10:50:00;;;;;;;3.70;1.55;;;25.50;99.90;;;;;;7392357;19;20213;-76
2022/06/24 10:52:48;;;;;;;2.95;1.40;;;25.50;99.90;;;;;;7393818;19;20150;-79
2022/06/24 10:55:29;;;;;;;3.92;1.60;;;25.60;99.90;;;;;;7389799;19;20131;-84
2022/06/24 10:58:01;;;;;;;4.25;1.58;;;25.70;99.90;;;;;;7393151;19;20623;-77
2022/06/24 11:00:48;;;;;;;1.80;1.30;;;26.00;99.90;;;;;;7391481;19;20135;-76
2022/06/24 11:03:29;;;;;;;4.82;1.38;;;26.30;99.90;;;;;;7390239;19;20169;-82
2022/06/24 11:05:55;;;;;;;3.53;1.58;;;26.30;99.90;;;;;;7388916;19;20174;-80
2022/06/24 11:08:24;;;;;;;2.45;1.40;;;26.30;99.90;;;;;;7389588;19;20496;-81
2022/06/24 11:10:51;;;;;;;2.83;1.40;;;26.30;99.90;;;;;;7390558;19;20142;-76
2022/06/24 11:13:17;;;;;;;4.15;1.40;;;26.30;99.90;;;;;;7389941;19;20166;-77
2022/06/24 11:15:43;;;;;;;3.83;1.55;;;26.20;99.90;;;;;;7395635;19;20149;-75
2022/06/24 11:18:18;;;;;;;7.72;1.70;;;26.20;99.90;;;;;;7398423;19;20146;-79
2022/06/24 11:21:19;;;;;;;4.20;1.50;;;26.20;99.90;;;;;;7395862;19;20189;-84
2022/06/24 11:23:47;;;;;;;4.97;1.60;;;26.00;99.90;;;;;;7398301;19;20149;-81
2022/06/24 11:26:18;;;;;;;3.67;1.73;;;25.90;99.90;;;;;;7400491;19;20883;-76
2022/06/24 11:28:55;;;;;;;5.18;1.65;;;25.80;99.90;;;;;;7399418;19;20139;-76
2022/06/24 11:31:22;;;;;;;4.57;1.40;;;25.70;99.90;;;;;;7397191;19;20678;-80
2022/06/24 11:34:09;;;;;;;3.42;1.27;;;25.70;99.90;;;;;;7396919;19;20150;-76
2022/06/24 11:36:37;;;;;;;1.58;1.20;;;25.60;99.90;;;;;;7395029;19;20141;-81
2022/06/24 11:39:09;;;;;;;2.95;1.40;;;25.60;99.90;;;;;;7399929;19;20130;-80
2022/06/24 11:41:40;;;;;;;2.63;1.10;;;25.60;99.90;;;;;;7394508;19;20146;-76
2022/06/24 11:44:06;;;;;;;2.45;1.40;;;25.60;99.90;;;;;;7395753;19;20156;-80
2022/06/24 11:46:32;;;;;;;4.25;2.20;;;25.60;99.90;;;;;;7393745;19;20222;-78
2022/06/24 11:49:13;;;;;;;2.63;1.58;;;25.70;99.90;;;;;;7396708;19;20206;-75
2022/06/24 11:51:44;;;;;;;4.15;1.60;;;25.80;99.90;;;;;;7393799;19;20150;-79
2022/06/24 11:54:11;;;;;;;1.45;1.15;;;25.70;99.90;;;;;;7395052;19;20151;-76
2022/06/24 11:56:41;;;;;;;1.25;1.00;;;25.50;99.90;;;;;;7395852;19;20238;-80
2022/06/24 11:59:09;;;;;;;3.65;1.35;;;25.40;99.90;;;;;;7393290;19;20156;-76
2022/06/24 12:01:35;;;;;;;2.25;1.15;;;25.30;99.90;;;;;;7397624;19;20206;-79
2022/06/24 12:04:06;;;;;;;5.15;1.30;;;25.30;99.90;;;;;;7392320;19;20174;-77
2022/06/24 12:06:33;;;;;;;2.00;1.00;;;25.40;99.90;;;;;;7394816;19;20146;-80
2022/06/24 12:08:59;;;;;;;2.22;1.23;;;25.40;99.90;;;;;;7395782;19;20214;-77
2022/06/24 12:11:25;;;;;;;2.03;1.00;;;25.60;99.90;;;;;;7396374;19;20150;-77
2022/06/24 12:13:58;;;;;;;2.85;1.40;;;25.80;99.90;;;;;;7394308;19;20254;-81
2022/06/24 12:16:28;;;;;;;2.42;1.10;;;25.90;99.90;;;;;;7393263;19;20156;-77
2022/06/24 12:18:54;;;;;;;3.47;1.27;;;25.80;99.90;;;;;;7395221;19;20174;-78
2022/06/24 12:21:26;;;;;;;1.65;1.00;;;25.80;99.90;;;;;;7395336;19;20210;-79
2022/06/24 12:23:52;;;;;;;1.95;1.27;;;25.90;99.90;;;;;;7401096;19;20150;-77
2022/06/24 12:26:20;;;;;;;2.60;1.23;;;25.90;99.90;;;;;;7394222;19;20139;-79
2022/06/24 12:29:02;;;;;;;3.10;1.10;;;25.80;99.90;;;;;;7394973;19;20610;-76
2022/06/24 12:31:29;;;;;;;2.45;1.05;;;25.80;99.90;;;;;;7395950;19;20158;-77
2022/06/24 12:33:56;;;;;;;2.90;1.10;;;25.80;99.90;;;;;;7396959;19;20143;-79
2022/06/24 12:36:24;;;;;;;1.85;1.00;;;25.70;99.90;;;;;;7394700;19;20234;-80
2022/06/24 12:38:53;;;;;;;2.95;1.02;;;25.60;99.90;;;;;;7392991;19;20610;-80
2022/06/24 12:41:20;;;;;;;3.70;1.00;;;25.60;99.90;;;;;;7393988;19;20154;-80
2022/06/24 12:44:01;;;;;;;1.15;0.90;;;25.50;99.90;;;;;;7394227;19;20159;-77
2022/06/24 12:52:47;;;;;;;5.10;3.97;;;25.50;99.90;;;;;;7395862;19;20146;-80
2022/06/24 12:55:15;;;;;;;2.30;1.20;;;25.50;99.90;;;;;;7394202;19;20148;-79
2022/06/24 12:57:42;;;;;;;7.35;2.90;;;25.50;99.90;;;;;;7395079;19;20176;-79
2022/06/24 13:00:11;;;;;;;11.85;2.75;;;25.30;99.90;;;;;;7390820;19;20143;-79
2022/06/24 13:02:49;;;;;;;3.75;1.70;;;25.10;99.90;;;;;;7392817;19;20142;-76
2022/06/24 13:05:15;;;;;;;5.68;1.38;;;24.10;99.90;;;;;;7392438;19;20142;-75
2022/06/24 13:07:41;;;;;;;3.80;1.00;;;23.40;99.90;;;;;;7392676;19;20629;-76